Time;durP1;ratioP1;P1;durP2;ratioP2;P2;SDS_P1;SDS_P2;PMS_P1;PMS_P2;Temp;Humidity;BMP_temperature;BMP_pressure;BME280_temperature;BME280_humidity;BME280_pressure;Samples;Min_cycle;Max_cycle;Signal;HPM_P1;HPM_P2
2022/03/03 00:01:18;;;;;;;19.70;12.15;;;;;;;-1.52;77.53;100082.78;1743770;80;21549;-65
2022/03/03 00:03:44;;;;;;;20.85;13.10;;;;;;;-1.54;77.21;100087.03;1759638;80;20936;-65
2022/03/03 00:06:11;;;;;;;20.37;13.80;;;;;;;-1.53;77.18;100083.64;1771193;80;21082;-65
2022/03/03 00:08:38;;;;;;;22.07;13.60;;;;;;;-1.52;76.93;100084.07;1747601;80;20861;-66
2022/03/03 00:11:04;;;;;;;20.90;14.70;;;;;;;-1.49;77.30;100085.37;1774125;80;21589;-65
2022/03/03 00:13:31;;;;;;;21.62;14.40;;;;;;;-1.50;76.99;100086.23;1773355;80;20944;-66
2022/03/03 00:15:58;;;;;;;22.20;13.95;;;;;;;-1.48;76.89;100079.42;1774664;80;20928;-66
2022/03/03 00:18:25;;;;;;;20.17;13.40;;;;;;;-1.51;76.90;100074.25;1774732;79;21065;-65
2022/03/03 00:20:52;;;;;;;17.50;12.83;;;;;;;-1.48;76.97;100074.30;1773630;80;20937;-65
2022/03/03 00:23:19;;;;;;;19.90;13.62;;;;;;;-1.50;78.42;100069.58;1774370;80;20944;-66
2022/03/03 00:25:46;;;;;;;22.30;13.33;;;;;;;-1.56;77.80;100068.27;1772555;80;21526;-65
2022/03/03 00:28:12;;;;;;;19.12;13.98;;;;;;;-1.60;78.40;100064.80;1772882;80;21543;-65
2022/03/03 00:30:43;;;;;;;17.30;11.40;;;;;;;-1.64;78.24;100067.77;1767463;80;20940;-65
2022/03/03 00:33:10;;;;;;;17.87;12.60;;;;;;;-1.66;79.10;100070.73;1774402;80;20917;-65
2022/03/03 00:35:36;;;;;;;18.30;11.63;;;;;;;-1.72;78.86;100056.61;1774051;80;20881;-65
2022/03/03 00:38:03;;;;;;;18.80;13.80;;;;;;;-1.75;78.38;100062.98;1772749;80;20957;-65
2022/03/03 00:40:30;;;;;;;18.67;12.50;;;;;;;-1.77;78.37;100056.98;1774139;80;21501;-65
2022/03/03 00:42:57;;;;;;;19.37;13.70;;;;;;;-1.79;78.40;100051.02;1747428;80;20974;-65
2022/03/03 00:45:24;;;;;;;26.00;15.83;;;;;;;-1.78;78.24;100054.43;1774582;80;20917;-65
2022/03/03 00:47:50;;;;;;;20.77;13.60;;;;;;;-1.78;78.35;100054.00;1787240;78;20871;-65
2022/03/03 00:50:17;;;;;;;26.35;16.95;;;;;;;-1.74;78.63;100056.16;1790172;78;20918;-65
2022/03/03 00:52:43;;;;;;;25.13;15.30;;;;;;;-1.72;78.45;100051.48;1783444;79;20937;-65
2022/03/03 00:55:10;;;;;;;26.23;15.75;;;;;;;-1.69;78.37;100057.91;1786030;80;21027;-65
2022/03/03 00:57:37;;;;;;;22.37;14.57;;;;;;;-1.67;78.58;100045.98;1785218;78;20918;-65
2022/03/03 01:00:06;;;;;;;19.93;14.03;;;;;;;-1.67;79.42;100044.70;1784012;79;20946;-65
2022/03/03 01:02:36;;;;;;;23.02;14.95;;;;;;;-1.69;79.06;100052.78;1777697;80;20879;-65
2022/03/03 01:05:06;;;;;;;21.68;15.58;;;;;;;-1.68;79.16;100054.52;1778910;78;21407;-65
2022/03/03 01:07:33;;;;;;;21.80;14.35;;;;;;;-1.70;79.71;100054.92;1780409;80;21288;-65
2022/03/03 01:10:00;;;;;;;23.87;15.00;;;;;;;-1.69;78.96;100050.22;1781098;78;21425;-65
2022/03/03 01:12:26;;;;;;;23.90;14.78;;;;;;;-1.68;78.93;100044.28;1785981;78;20843;-65
2022/03/03 01:14:53;;;;;;;21.85;13.90;;;;;;;-1.65;79.03;100049.42;1772863;79;21545;-65
2022/03/03 01:17:19;;;;;;;20.30;14.23;;;;;;;-1.69;79.88;100046.39;1774924;80;20895;-65
2022/03/03 01:19:46;;;;;;;18.67;12.23;;;;;;;-1.72;79.65;100045.08;1772129;78;21116;-65
2022/03/03 01:22:15;;;;;;;17.73;12.47;;;;;;;-1.73;80.15;100045.94;1776140;79;20987;-65
2022/03/03 01:24:42;;;;;;;23.92;13.38;;;;;;;-1.74;79.41;100045.48;1772091;80;20916;-65
2022/03/03 01:27:08;;;;;;;20.32;12.78;;;;;;;-1.73;79.65;100045.09;1773498;78;21487;-65
2022/03/03 01:29:35;;;;;;;24.87;14.83;;;;;;;-1.72;79.42;100037.41;1777257;79;20969;-65
2022/03/03 01:32:02;;;;;;;20.70;14.20;;;;;;;-1.69;79.32;100035.30;1774889;78;21121;-65
2022/03/03 01:34:29;;;;;;;19.98;13.68;;;;;;;-1.64;79.77;100040.87;1774945;78;20909;-65
2022/03/03 01:36:56;;;;;;;25.08;14.28;;;;;;;-1.67;79.47;100040.86;1773666;78;20925;-65
2022/03/03 01:39:22;;;;;;;24.43;14.83;;;;;;;-1.67;79.47;100040.86;1771377;80;20927;-65
2022/03/03 01:41:51;;;;;;;21.67;13.77;;;;;;;-1.67;79.52;100040.86;1773847;79;20952;-65
2022/03/03 01:44:17;;;;;;;22.13;15.28;;;;;;;-1.70;79.46;100030.60;1769794;78;21062;-65
2022/03/03 01:46:53;;;;;;;20.48;13.28;;;;;;;-1.72;80.03;100039.97;1771832;79;21032;-65
2022/03/03 01:49:20;;;;;;;23.45;15.20;;;;;;;-1.74;79.61;100038.23;1776789;79;20888;-65
2022/03/03 01:51:47;;;;;;;24.43;15.98;;;;;;;-1.78;81.51;100038.64;1774113;80;20882;-66
2022/03/03 01:54:14;;;;;;;25.10;15.00;;;;;;;-1.82;80.61;100036.89;1772568;79;20977;-65
2022/03/03 01:56:42;;;;;;;22.77;14.05;;;;;;;-1.84;80.85;100030.92;1775137;80;21789;-65
2022/03/03 01:59:09;;;;;;;23.32;15.20;;;;;;;-1.86;80.94;100033.88;1774343;79;20905;-65
2022/03/03 02:01:37;;;;;;;;;;;;;;;-1.86;80.72;100032.60;1775417;80;21410;-65
2022/03/03 02:04:09;;;;;;;21.45;14.15;;;;;;;-1.85;80.83;100040.70;1776179;79;20132;-65
2022/03/03 02:06:37;;;;;;;22.45;14.25;;;;;;;-1.86;80.91;100039.86;1794975;78;21379;-65
2022/03/03 02:09:05;;;;;;;25.48;15.78;;;;;;;-1.85;80.55;100033.91;1795418;79;21117;-65
2022/03/03 02:11:32;;;;;;;22.25;13.13;;;;;;;-1.79;80.44;100027.98;1796995;78;21429;-65
2022/03/03 02:14:02;;;;;;;22.35;14.65;;;;;;;-1.73;80.36;100026.74;1794985;79;20892;-65
2022/03/03 02:16:29;;;;;;;24.02;15.30;;;;;;;-1.75;80.73;100029.70;1799195;78;20925;-65
2022/03/03 02:18:56;;;;;;;23.77;14.55;;;;;;;-1.76;80.52;100024.56;1799073;78;21699;-65
2022/03/03 02:21:22;;;;;;;24.77;14.78;;;;;;;-1.77;80.50;100018.59;1797299;79;21069;-65
2022/03/03 02:23:50;;;;;;;27.45;14.60;;;;;;;-1.78;80.99;100019.44;1794487;78;20890;-65
2022/03/03 02:26:20;;;;;;;19.12;13.50;;;;;;;-1.80;80.66;100031.36;1798044;79;21449;-65
2022/03/03 02:28:49;;;;;;;21.55;15.78;;;;;;;-1.78;80.84;100028.83;1797931;79;20935;-65
2022/03/03 02:31:16;;;;;;;21.62;12.93;;;;;;;-1.80;81.42;100023.69;1792864;78;20981;-65
2022/03/03 02:33:43;;;;;;;21.93;14.28;;;;;;;-1.84;81.74;100020.69;1798010;78;21030;-65
2022/03/03 02:36:27;;;;;;;24.92;13.85;;;;;;;-1.90;81.35;100016.80;1794990;79;20929;-65
2022/03/03 02:38:59;;;;;;;20.40;13.80;;;;;;;-1.91;81.16;100012.51;1772402;78;20956;-65
2022/03/03 02:41:26;;;;;;;23.45;13.78;;;;;;;-1.92;82.27;100015.50;1794705;79;21458;-65
2022/03/03 02:43:54;;;;;;;25.37;15.35;;;;;;;-1.94;81.32;100000.97;1795368;79;20874;-65
2022/03/03 02:46:20;;;;;;;21.70;14.63;;;;;;;-1.90;81.41;99996.33;1795218;78;21021;-65
2022/03/03 02:48:47;;;;;;;25.50;15.75;;;;;;;-1.89;81.54;100000.59;1794795;78;20920;-65
2022/03/03 02:51:14;;;;;;;25.85;14.98;;;;;;;-1.89;81.57;100008.27;1799756;78;21447;-66
2022/03/03 02:53:41;;;;;;;20.10;12.55;;;;;;;-1.89;81.27;99995.47;1783788;78;20915;-65
2022/03/03 02:56:11;;;;;;;21.68;12.82;;;;;;;-1.87;81.38;99996.34;1786591;78;20950;-65
2022/03/03 02:58:37;;;;;;;25.10;13.65;;;;;;;-1.88;81.26;99989.50;1793902;78;21119;-65
2022/03/03 03:01:06;;;;;;;18.65;12.58;;;;;;;-1.89;81.65;99989.08;1779937;78;21584;-65
2022/03/03 03:03:33;;;;;;;22.85;13.93;;;;;;;-1.91;82.52;99985.20;1788753;78;21526;-65
2022/03/03 03:06:00;;;;;;;22.15;13.62;;;;;;;-1.93;82.11;99986.04;1759178;79;26373;-65
2022/03/03 03:08:27;;;;;;;23.23;14.23;;;;;;;-1.88;81.74;99986.94;1788546;78;20946;-65
2022/03/03 03:10:54;;;;;;;22.02;13.85;;;;;;;-1.83;81.72;99973.33;1782330;78;21883;-66
2022/03/03 03:13:20;;;;;;;18.98;12.93;;;;;;;-1.81;81.54;99965.24;1776334;79;20879;-65
2022/03/03 03:15:47;;;;;;;24.98;14.00;;;;;;;-1.76;81.57;99966.96;1788757;80;20883;-65
2022/03/03 03:18:21;;;;;;;21.37;12.05;;;;;;;-1.73;81.59;99961.46;1787837;78;20956;-65
2022/03/03 03:20:51;;;;;;;23.60;15.23;;;;;;;-1.63;81.57;99956.81;1781487;78;20895;-66
2022/03/03 03:23:22;;;;;;;22.50;12.65;;;;;;;-1.54;81.57;99951.31;1792082;78;21448;-65
2022/03/03 03:25:50;;;;;;;17.57;12.15;;;;;;;-1.50;81.53;99950.50;1782513;78;20897;-65
2022/03/03 03:28:19;;;;;;;21.45;12.80;;;;;;;-1.42;81.55;99943.70;1782088;78;21418;-65
2022/03/03 03:30:47;;;;;;;17.87;12.43;;;;;;;-1.39;81.45;99947.56;1772793;80;20879;-65
2022/03/03 03:33:14;;;;;;;22.65;12.73;;;;;;;-1.35;81.45;99937.75;1775167;80;20919;-66
2022/03/03 03:35:41;;;;;;;18.92;12.95;;;;;;;-1.30;81.48;99944.19;1789499;78;21864;-66
2022/03/03 03:38:08;;;;;;;21.42;13.00;;;;;;;-1.25;81.54;99942.07;1790173;80;20921;-66
2022/03/03 03:40:35;;;;;;;22.82;13.83;;;;;;;-1.21;81.52;99934.81;1792658;78;20915;-65
2022/03/03 03:43:01;;;;;;;21.97;16.43;;;;;;;-1.22;81.44;99934.39;1792235;78;20952;-65
2022/03/03 03:45:28;;;;;;;19.50;12.93;;;;;;;-1.17;81.57;99930.15;1793798;78;20917;-65
2022/03/03 03:47:55;;;;;;;20.27;12.77;;;;;;;-1.10;81.60;99925.89;1794205;80;21026;-66
2022/03/03 03:50:21;;;;;;;22.32;15.35;;;;;;;-1.10;81.60;99925.89;1790651;78;21315;-65
2022/03/03 03:52:48;;;;;;;21.30;14.10;;;;;;;-1.08;81.43;99925.48;1793223;78;21545;-65
2022/03/03 03:55:15;;;;;;;25.67;15.23;;;;;;;-1.05;81.74;99920.79;1793952;78;20917;-66
2022/03/03 03:57:41;;;;;;;24.40;13.22;;;;;;;-1.05;81.74;99920.79;1787232;79;21437;-66
2022/03/03 04:00:15;;;;;;;19.52;12.63;;;;;;;-0.99;81.73;99920.80;1793289;78;21081;-65
2022/03/03 04:02:43;;;;;;;21.05;13.72;;;;;;;-0.96;81.63;99919.09;1790653;78;21438;-65
2022/03/03 04:05:11;;;;;;;21.73;12.75;;;;;;;-0.94;81.59;99915.27;1762574;79;20882;-66
2022/03/03 04:07:39;;;;;;;21.90;13.18;;;;;;;-0.92;81.63;99916.98;1789023;78;20858;-65
2022/03/03 04:10:07;;;;;;;23.20;14.28;;;;;;;-0.97;81.49;99919.11;1786528;79;20945;-65
2022/03/03 04:12:33;;;;;;;16.90;11.03;;;;;;;-0.97;81.57;99919.11;1787996;78;22365;-65
2022/03/03 04:15:00;;;;;;;21.52;12.68;;;;;;;-0.98;81.50;99919.94;1784061;79;20969;-65
2022/03/03 04:17:27;;;;;;;20.75;12.80;;;;;;;-1.00;81.53;99919.95;1783735;78;20920;-65
2022/03/03 04:19:53;;;;;;;22.30;12.53;;;;;;;-0.99;81.58;99916.52;1779897;80;20886;-65
2022/03/03 04:22:20;;;;;;;23.90;14.07;;;;;;;-1.00;81.64;99912.27;1782428;80;20866;-65
2022/03/03 04:24:47;;;;;;;23.02;13.55;;;;;;;-1.01;81.62;99911.84;1784829;78;21176;-65
2022/03/03 04:27:14;;;;;;;19.85;12.45;;;;;;;-1.00;81.63;99911.41;1780435;78;20919;-65
2022/03/03 04:29:41;;;;;;;20.05;12.33;;;;;;;-1.00;81.68;99911.41;1786822;78;20867;-66
2022/03/03 04:32:08;;;;;;;25.30;18.07;;;;;;;-1.02;81.62;99916.52;1778810;80;20880;-65
2022/03/03 04:34:35;;;;;;;20.05;12.23;;;;;;;-1.00;81.80;99913.97;1771737;80;20974;-66
2022/03/03 04:37:02;;;;;;;22.23;12.97;;;;;;;-0.98;81.67;99915.69;1773489;78;21473;-65
2022/03/03 04:39:28;;;;;;;23.90;13.53;;;;;;;-1.03;81.56;99915.25;1774448;78;21508;-65
2022/03/03 04:41:58;;;;;;;20.88;13.35;;;;;;;-1.05;81.66;99916.95;1778997;78;20914;-65
2022/03/03 04:44:24;;;;;;;24.02;14.03;;;;;;;-1.06;81.66;99916.09;1783031;80;21420;-65
2022/03/03 04:46:51;;;;;;;15.75;10.93;;;;;;;-1.07;81.73;99918.64;1775057;78;20855;-65
2022/03/03 04:49:18;;;;;;;21.10;13.58;;;;;;;-1.07;81.74;99923.77;1778729;80;21048;-65
2022/03/03 04:51:44;;;;;;;21.70;12.70;;;;;;;-1.10;81.69;99927.60;1799347;78;20923;-65
2022/03/03 04:54:11;;;;;;;19.63;13.10;;;;;;;-1.15;81.74;99929.73;1766933;80;21444;-65
2022/03/03 04:56:39;;;;;;;18.37;12.70;;;;;;;-1.19;81.68;99920.31;1789394;79;21423;-65
2022/03/03 04:59:06;;;;;;;;;;;;;;;-1.20;81.70;99926.30;1789649;79;20947;-65
2022/03/03 05:01:32;;;;;;;18.57;12.45;;;;;;;-1.24;81.73;99928.40;1776452;78;21151;-65
2022/03/03 05:03:59;;;;;;;16.73;10.80;;;;;;;-1.28;81.82;99920.72;1779056;79;21424;-65
2022/03/03 05:06:26;;;;;;;19.83;14.37;;;;;;;-1.29;81.89;99918.55;1789773;79;20909;-65
2022/03/03 05:08:52;;;;;;;22.47;13.27;;;;;;;-1.33;81.85;99915.56;1780903;78;21446;-65
2022/03/03 05:11:19;;;;;;;27.87;12.93;;;;;;;-1.35;81.91;99920.67;1779220;79;20873;-65
2022/03/03 05:13:48;;;;;;;23.10;16.05;;;;;;;-1.39;81.88;99918.95;1782267;79;21553;-65
2022/03/03 05:16:14;;;;;;;17.02;11.70;;;;;;;-1.39;82.00;99918.11;1732421;79;20926;-65
2022/03/03 05:18:41;;;;;;;22.15;14.63;;;;;;;-1.40;82.03;99918.94;1787880;79;20890;-65
2022/03/03 05:21:08;;;;;;;21.03;13.50;;;;;;;-1.43;82.13;99918.92;1782701;79;20886;-65
2022/03/03 05:23:35;;;;;;;21.33;13.10;;;;;;;-1.38;82.21;99912.13;1786340;78;20903;-65
2022/03/03 05:26:01;;;;;;;19.17;12.25;;;;;;;-1.35;82.23;99915.97;1781905;78;21027;-65
2022/03/03 05:28:28;;;;;;;22.87;12.78;;;;;;;-1.32;82.26;99917.27;1773621;80;20969;-65
2022/03/03 05:30:57;;;;;;;25.00;19.77;;;;;;;-1.30;82.27;99910.45;1787274;78;21407;-65
2022/03/03 05:33:24;;;;;;;19.82;14.83;;;;;;;-1.28;82.22;99920.29;1790645;78;20913;-65
2022/03/03 05:35:56;;;;;;;20.08;12.47;;;;;;;-1.25;82.34;99925.85;1787177;79;20898;-65
2022/03/03 05:38:31;;;;;;;19.05;12.37;;;;;;;-1.22;82.34;99929.27;1788331;79;20990;-65
2022/03/03 05:40:59;;;;;;;16.67;11.83;;;;;;;-1.28;82.10;99936.94;1756958;78;21035;-65
2022/03/03 05:43:26;;;;;;;;;;;;;;;-1.32;82.21;99932.63;1760164;78;20904;-65
2022/03/03 05:45:54;;;;;;;18.35;11.00;;;;;;;-1.41;82.12;99939.86;1779485;78;20438;-65
2022/03/03 05:48:22;;;;;;;16.97;10.82;;;;;;;-1.48;82.13;99930.45;1784046;79;20964;-65
2022/03/03 05:50:50;;;;;;;19.73;11.43;;;;;;;-1.53;82.39;99932.55;1756687;80;21488;-65
2022/03/03 05:53:16;;;;;;;;;;;;;;;-1.57;82.38;99938.06;1771540;79;20937;-66
2022/03/03 05:55:48;;;;;;;18.07;12.23;;;;;;;-1.59;82.74;99934.23;1776526;78;20447;-65
2022/03/03 05:58:20;;;;;;;17.52;11.93;;;;;;;-1.64;82.61;99935.91;1774290;80;20954;-66
2022/03/03 06:00:49;;;;;;;19.62;11.45;;;;;;;-1.66;82.60;99936.31;1745037;80;21059;-65
2022/03/03 06:03:19;;;;;;;16.45;10.60;;;;;;;-1.63;82.67;99942.73;1781384;79;21057;-65
2022/03/03 06:05:52;;;;;;;13.62;9.55;;;;;;;-1.67;82.87;99943.57;1779752;80;21120;-64
2022/03/03 06:08:30;;;;;;;14.65;9.70;;;;;;;-1.71;82.80;99953.38;1773249;79;21717;-65
2022/03/03 06:11:01;;;;;;;15.30;10.10;;;;;;;-1.72;82.93;99952.92;1774254;79;20936;-65
2022/03/03 06:13:37;;;;;;;15.95;10.08;;;;;;;-1.76;83.15;99951.20;1764513;79;20910;-64
2022/03/03 06:16:05;;;;;;;17.12;9.45;;;;;;;-1.81;84.24;99959.27;1763329;79;21079;-64
2022/03/03 06:18:33;;;;;;;16.60;10.80;;;;;;;-1.84;83.73;99963.09;1760772;79;21142;-68
2022/03/03 06:21:01;;;;;;;15.10;10.15;;;;;;;-1.84;84.24;99966.94;1770166;80;20907;-65
2022/03/03 06:23:28;;;;;;;18.33;10.83;;;;;;;-1.83;84.76;99962.23;1776449;79;20927;-65
2022/03/03 06:26:04;;;;;;;20.52;11.95;;;;;;;-1.84;84.38;99961.39;1777796;80;20942;-65
2022/03/03 06:28:32;;;;;;;15.03;10.90;;;;;;;-1.82;84.66;99963.94;1774032;80;21033;-66
2022/03/03 06:30:59;;;;;;;13.85;10.58;;;;;;;-1.79;85.14;99960.15;1770582;80;20876;-65
2022/03/03 06:33:26;;;;;;;26.87;13.23;;;;;;;-1.77;85.28;99972.51;1780066;80;20890;-66
2022/03/03 06:35:55;;;;;;;18.35;12.68;;;;;;;-1.74;84.68;99975.09;1784958;80;21021;-66
2022/03/03 06:38:22;;;;;;;19.37;12.05;;;;;;;-1.68;85.11;99972.59;1780926;79;20957;-66
2022/03/03 06:40:50;;;;;;;26.07;14.60;;;;;;;-1.66;85.12;99968.31;1771311;79;21895;-67
2022/03/03 06:43:17;;;;;;;23.98;13.85;;;;;;;-1.64;85.78;99960.23;1777483;79;20887;-67
2022/03/03 06:45:44;;;;;;;25.90;14.70;;;;;;;-1.58;85.07;99953.86;1778343;79;20879;-69
2022/03/03 06:48:11;;;;;;;23.90;14.60;;;;;;;-1.46;84.93;99956.05;1779724;79;21034;-66
2022/03/03 06:50:42;;;;;;;26.87;15.43;;;;;;;-1.40;84.85;99957.35;1782094;79;20907;-65
2022/03/03 06:53:09;;;;;;;23.60;14.05;;;;;;;-1.37;84.71;99966.36;1778462;80;21492;-67
2022/03/03 06:55:37;;;;;;;;;;;;;;;-1.36;84.75;99966.78;1781077;79;21431;-66
2022/03/03 06:58:04;;;;;;;23.38;16.15;;;;;;;-1.31;84.92;99977.06;1766126;79;20462;-66
2022/03/03 07:00:34;;;;;;;25.12;14.60;;;;;;;-1.30;84.91;99971.93;1779445;79;21799;-67
2022/03/03 07:03:04;;;;;;;24.63;14.30;;;;;;;-1.20;84.94;99972.41;1759069;80;20945;-66
2022/03/03 07:05:31;;;;;;;21.02;11.93;;;;;;;-1.15;84.95;99982.27;1766110;79;21089;-65
2022/03/03 07:07:58;;;;;;;18.42;11.28;;;;;;;-1.17;84.92;99990.36;1742973;80;21032;-65
2022/03/03 07:10:26;;;;;;;18.67;11.48;;;;;;;-1.21;84.89;99989.90;1794239;80;20929;-66
2022/03/03 07:12:58;;;;;;;20.05;12.18;;;;;;;-1.22;85.61;99992.47;1794966;80;20893;-65
2022/03/03 07:15:26;;;;;;;24.18;14.18;;;;;;;-1.23;85.22;99983.94;1764950;80;20934;-65
2022/03/03 07:18:01;;;;;;;27.05;12.80;;;;;;;-1.19;85.10;99988.21;1783935;78;21332;-66
2022/03/03 07:20:55;;;;;;;21.62;12.78;;;;;;;-1.11;85.14;99977.16;1749401;81;20982;-65
2022/03/03 07:23:33;;;;;;;22.02;12.93;;;;;;;-1.05;85.14;99967.77;1762898;80;20930;-65
2022/03/03 07:26:01;;;;;;;22.93;13.90;;;;;;;-0.99;85.31;99971.63;1794641;78;20914;-66
2022/03/03 07:28:30;;;;;;;19.73;13.50;;;;;;;-0.94;85.23;99972.94;1790130;78;20942;-66
2022/03/03 07:31:00;;;;;;;24.92;14.65;;;;;;;-0.92;85.15;99968.69;1791591;78;21935;-65
2022/03/03 07:33:47;;;;;;;23.45;14.47;;;;;;;-0.86;85.07;99968.70;1789015;78;21026;-65
2022/03/03 07:36:24;;;;;;;25.48;15.10;;;;;;;-0.82;85.04;99961.43;1785828;79;20918;-65
2022/03/03 07:39:05;;;;;;;28.80;17.40;;;;;;;-0.72;85.13;99967.02;1794345;78;20874;-65
2022/03/03 07:41:33;;;;;;;29.18;15.78;;;;;;;-0.65;85.27;99977.28;1775245;80;21000;-66
2022/03/03 07:44:00;;;;;;;30.43;17.95;;;;;;;-0.66;85.22;99967.89;1782892;80;21806;-65
2022/03/03 07:46:28;;;;;;;28.80;16.70;;;;;;;-0.72;85.05;99973.43;1751506;80;20926;-66
2022/03/03 07:48:56;;;;;;;26.73;15.40;;;;;;;-0.77;86.32;99978.97;1755972;80;20982;-65
2022/03/03 07:51:25;;;;;;;31.62;16.77;;;;;;;-0.82;86.27;99976.81;1770355;80;20879;-66
2022/03/03 07:53:51;;;;;;;27.58;16.42;;;;;;;-0.78;85.79;99974.70;1771792;80;21481;-66
2022/03/03 07:56:32;;;;;;;29.90;18.05;;;;;;;-0.71;85.94;99982.83;1794769;78;21020;-65
2022/03/03 07:59:03;;;;;;;30.95;18.42;;;;;;;-0.70;85.69;99973.02;1758095;79;20902;-66
2022/03/03 08:01:37;;;;;;;29.60;16.35;;;;;;;-0.64;85.61;99985.40;1796102;80;20858;-66
2022/03/03 08:04:01;;;;;;;27.48;16.80;;;;;;;-0.59;86.01;99979.86;1790624;78;21548;-65
2022/03/03 08:06:35;;;;;;;29.75;18.15;;;;;;;-0.57;85.72;99976.45;1789533;80;21425;-65
2022/03/03 08:09:02;;;;;;;28.05;16.35;;;;;;;-0.50;85.73;99970.92;1769636;78;21077;-66
2022/03/03 08:11:30;;;;;;;28.45;16.82;;;;;;;-0.44;85.55;99985.03;1774129;79;20935;-65
2022/03/03 08:13:57;;;;;;;27.80;16.80;;;;;;;-0.43;85.53;99981.60;1778642;78;20899;-66
2022/03/03 08:16:24;;;;;;;28.92;16.95;;;;;;;-0.41;85.67;99982.47;1779216;80;20872;-66
2022/03/03 08:18:57;;;;;;;32.67;17.92;;;;;;;-0.37;85.76;99981.60;1773299;78;20947;-65
2022/03/03 08:21:24;;;;;;;29.52;15.53;;;;;;;-0.33;85.59;99991.03;1778265;80;20986;-65
2022/03/03 08:23:51;;;;;;;;;;;;;;;-0.23;85.80;99985.47;1773405;78;21456;-65
2022/03/03 08:26:20;;;;;;;30.05;18.12;;;;;;;-0.26;85.84;99982.47;1775552;80;20092;-65
2022/03/03 08:28:47;;;;;;;36.88;19.85;;;;;;;-0.30;86.13;99988.47;1773156;79;20887;-65
2022/03/03 08:31:17;;;;;;;28.87;17.30;;;;;;;-0.32;85.86;99988.89;1779406;80;21036;-65
2022/03/03 08:33:56;;;;;;;31.68;18.95;;;;;;;-0.24;85.92;99975.64;1768493;79;21026;-66
2022/03/03 08:36:46;;;;;;;27.42;16.25;;;;;;;-0.12;86.03;99976.06;1778708;80;20955;-65
2022/03/03 08:39:17;;;;;;;30.48;18.10;;;;;;;-0.06;86.17;99994.46;1777684;78;21520;-65
2022/03/03 08:41:48;;;;;;;34.88;18.90;;;;;;;0.02;85.90;99983.77;1771993;79;20885;-66
2022/03/03 08:44:18;;;;;;;31.95;19.48;;;;;;;0.12;85.98;99993.19;1744523;80;20872;-66
2022/03/03 08:46:45;;;;;;;27.98;15.72;;;;;;;0.14;85.68;99991.48;1779064;79;21019;-67
2022/03/03 08:49:14;;;;;;;26.37;16.52;;;;;;;0.15;85.88;99989.33;1774590;80;20892;-66
2022/03/03 08:51:42;;;;;;;25.80;16.40;;;;;;;0.17;85.79;99994.05;1758984;78;21433;-67
2022/03/03 08:54:08;;;;;;;28.73;16.02;;;;;;;0.16;86.00;99996.60;1770014;79;20961;-67
2022/03/03 08:56:36;;;;;;;27.60;16.30;;;;;;;0.18;86.00;99988.48;1777197;78;20982;-67
2022/03/03 08:59:05;;;;;;;27.65;17.45;;;;;;;0.18;85.98;99986.76;1773728;79;20950;-67
2022/03/03 09:01:32;;;;;;;29.27;17.33;;;;;;;0.21;86.12;99997.02;1774544;80;20950;-66
2022/03/03 09:03:58;;;;;;;30.93;17.03;;;;;;;0.30;86.09;99991.45;1771821;80;21060;-66
2022/03/03 09:06:26;;;;;;;30.77;18.23;;;;;;;0.40;86.00;99994.45;1767880;78;20979;-68
2022/03/03 09:08:53;;;;;;;28.77;17.60;;;;;;;0.50;86.02;99990.98;1762969;79;20958;-65
2022/03/03 09:11:20;;;;;;;30.75;17.65;;;;;;;0.53;85.96;99988.41;1770475;80;21100;-66
2022/03/03 09:13:47;;;;;;;32.00;17.30;;;;;;;0.64;86.05;99991.84;1774995;79;20919;-66
2022/03/03 09:16:16;;;;;;;25.27;17.02;;;;;;;0.79;86.19;99996.50;1778398;80;21025;-66
2022/03/03 09:18:45;;;;;;;31.20;18.57;;;;;;;0.89;85.97;99991.73;1759865;80;20925;-66
2022/03/03 09:21:12;;;;;;;31.25;18.77;;;;;;;0.98;85.71;99990.44;1777172;78;21037;-66
2022/03/03 09:23:39;;;;;;;28.93;18.47;;;;;;;1.03;85.68;100002.81;1775781;80;21018;-66
2022/03/03 09:26:12;;;;;;;31.95;17.25;;;;;;;1.01;85.62;99992.99;1773888;80;20875;-66
2022/03/03 09:28:39;;;;;;;24.90;17.35;;;;;;;1.02;85.67;99998.55;1773285;79;20942;-66
2022/03/03 09:31:06;;;;;;;25.82;17.15;;;;;;;1.08;85.71;100002.81;1778844;78;20891;-66
2022/03/03 09:33:32;;;;;;;32.13;18.50;;;;;;;1.19;85.65;100003.62;1774613;78;21635;-66
2022/03/03 09:35:59;;;;;;;28.45;16.27;;;;;;;1.20;85.52;99995.02;1767676;78;21201;-66
2022/03/03 09:38:33;;;;;;;26.40;15.53;;;;;;;1.29;85.70;99987.72;1787477;80;20866;-66
2022/03/03 09:40:59;;;;;;;34.73;17.67;;;;;;;1.47;85.80;99994.47;1791644;78;20921;-68
2022/03/03 09:43:28;;;;;;;30.97;18.35;;;;;;;1.55;85.49;99992.27;1752075;81;21448;-66
2022/03/03 09:45:55;;;;;;;27.50;17.55;;;;;;;1.54;85.30;99999.58;1773560;80;21513;-66
2022/03/03 09:48:21;;;;;;;22.87;15.65;;;;;;;1.56;85.31;100004.27;1776399;80;21054;-66
2022/03/03 09:50:48;;;;;;;24.10;15.43;;;;;;;1.49;85.25;100007.75;1775051;79;20975;-66
2022/03/03 09:53:17;;;;;;;24.98;17.00;;;;;;;1.49;85.43;100002.61;1745202;79;21611;-66
2022/03/03 09:55:47;;;;;;;27.37;16.40;;;;;;;1.60;85.57;99999.09;1774480;80;21496;-66
2022/03/03 09:58:14;;;;;;;29.92;16.05;;;;;;;1.66;85.38;99993.93;1773948;80;21457;-66
2022/03/03 10:00:42;;;;;;;21.60;15.08;;;;;;;1.74;85.35;100010.19;1773542;80;20978;-66
2022/03/03 10:03:13;;;;;;;25.72;15.53;;;;;;;1.76;85.12;100001.99;1789574;79;20937;-66
2022/03/03 10:05:51;;;;;;;22.67;15.18;;;;;;;1.89;85.62;100002.33;1784762;78;21419;-64
2022/03/03 10:08:22;;;;;;;20.08;14.23;;;;;;;1.98;85.21;99991.95;1788872;79;21440;-66
2022/03/03 10:10:52;;;;;;;20.55;13.70;;;;;;;2.10;85.46;99993.60;1781180;79;20949;-67
2022/03/03 10:13:19;;;;;;;21.05;13.55;;;;;;;2.24;85.08;99979.28;1775764;80;21021;-66
2022/03/03 10:15:52;;;;;;;25.15;14.85;;;;;;;2.53;85.73;99982.03;1773690;80;21018;-66
2022/03/03 10:18:20;;;;;;;21.07;14.03;;;;;;;2.78;85.36;99986.05;1772611;80;20982;-67
2022/03/03 10:21:06;;;;;;;18.32;11.93;;;;;;;2.94;85.10;99984.16;1774988;80;21057;-66
2022/03/03 10:23:35;;;;;;;17.55;10.88;;;;;;;3.03;84.78;99974.16;1772079;80;20953;-66
2022/03/03 10:26:07;;;;;;;17.92;9.98;;;;;;;3.13;84.46;99982.18;1775972;80;21175;-67
2022/03/03 10:28:36;;;;;;;17.85;10.30;;;;;;;3.19;83.78;99982.09;1771863;80;20958;-66
2022/03/03 10:31:09;;;;;;;16.93;11.48;;;;;;;3.23;84.00;99983.78;1768023;79;20949;-67
2022/03/03 10:33:39;;;;;;;16.67;11.88;;;;;;;3.20;83.10;99985.11;1769548;79;20902;-66
2022/03/03 10:36:15;;;;;;;19.37;12.60;;;;;;;3.06;82.99;99993.47;1770811;79;21018;-66
2022/03/03 10:39:03;;;;;;;20.30;12.85;;;;;;;3.00;83.39;99983.23;1770380;80;21028;-66
2022/03/03 10:41:47;;;;;;;19.15;12.00;;;;;;;3.00;83.48;99980.65;1766671;80;20913;-66
2022/03/03 10:44:24;;;;;;;15.98;10.85;;;;;;;3.20;84.69;99973.50;1769856;79;20884;-66
2022/03/03 10:47:13;;;;;;;17.65;11.00;;;;;;;3.58;83.94;99982.42;1774911;80;20974;-67
2022/03/03 10:49:47;;;;;;;14.70;9.70;;;;;;;3.56;83.52;99988.07;1767623;79;20915;-66
2022/03/03 10:52:19;;;;;;;15.35;10.32;;;;;;;3.53;83.15;99988.12;1763893;80;21057;-66
2022/03/03 10:55:03;;;;;;;14.85;9.73;;;;;;;3.23;81.91;99977.33;1750080;79;20947;-66
2022/03/03 10:57:40;;;;;;;15.35;10.05;;;;;;;3.06;82.18;99985.73;1766007;80;20888;-66
2022/03/03 11:00:14;;;;;;;13.65;9.63;;;;;;;3.16;83.52;99972.26;1768717;80;20915;-66
2022/03/03 11:02:48;;;;;;;11.78;7.60;;;;;;;3.43;83.62;99980.08;1762968;79;20856;-66
2022/03/03 11:05:18;;;;;;;11.93;7.10;;;;;;;3.44;81.35;99981.77;1769214;79;21104;-66
2022/03/03 11:07:48;;;;;;;12.13;7.83;;;;;;;3.50;82.18;99986.84;1766012;80;20911;-66
2022/03/03 11:10:18;;;;;;;9.10;6.25;;;;;;;3.51;81.97;99979.53;1774487;79;20875;-67
2022/03/03 11:12:46;;;;;;;14.53;7.78;;;;;;;3.36;80.71;99980.17;1775853;79;20896;-66
2022/03/03 11:15:21;;;;;;;11.15;7.28;;;;;;;3.28;81.96;99974.25;1771785;79;21392;-66
2022/03/03 11:17:48;;;;;;;14.60;8.15;;;;;;;3.44;82.01;99977.90;1759091;80;21104;-66
2022/03/03 11:20:17;;;;;;;12.55;7.92;;;;;;;3.57;82.32;99980.73;1745327;79;20902;-65
2022/03/03 11:22:45;;;;;;;15.55;8.45;;;;;;;3.69;81.91;99975.38;1760258;79;20959;-67
2022/03/03 11:25:19;;;;;;;14.85;8.50;;;;;;;3.83;80.66;99989.81;1781675;79;20909;-68
2022/03/03 11:27:46;;;;;;;13.65;6.90;;;;;;;3.68;80.67;99981.42;1768170;79;20896;-65